sensor_id;sensor_type;location;lat;lon;timestamp;temperature;humidity
7920;DHT22;18778;47.610;9.776;2024-03-08T00:01:48;0.70;99.90
7920;DHT22;18778;47.610;9.776;2024-03-08T00:06:41;0.70;99.90
7920;DHT22;18778;47.610;9.776;2024-03-08T00:09:07;0.60;99.90
7920;DHT22;18778;47.610;9.776;2024-03-08T00:11:33;0.60;99.90
7920;DHT22;18778;47.610;9.776;2024-03-08T00:14:00;0.60;99.90
7920;DHT22;18778;47.610;9.776;2024-03-08T00:16:25;0.60;99.90
7920;DHT22;18778;47.610;9.776;2024-03-08T00:18:51;0.60;99.90
7920;DHT22;18778;47.610;9.776;2024-03-08T00:21:17;0.60;99.90
7920;DHT22;18778;47.610;9.776;2024-03-08T00:23:42;0.50;99.90
7920;DHT22;18778;47.610;9.776;2024-03-08T00:26:08;0.50;99.90
7920;DHT22;18778;47.610;9.776;2024-03-08T00:28:34;0.50;99.90
7920;DHT22;18778;47.610;9.776;2024-03-08T00:31:00;0.50;99.90
7920;DHT22;18778;47.610;9.776;2024-03-08T00:33:26;0.50;99.90
7920;DHT22;18778;47.610;9.776;2024-03-08T00:35:53;0.50;99.90
7920;DHT22;18778;47.610;9.776;2024-03-08T00:38:19;0.40;99.90
7920;DHT22;18778;47.610;9.776;2024-03-08T00:40:45;0.30;99.90
7920;DHT22;18778;47.610;9.776;2024-03-08T00:43:10;0.30;99.90
7920;DHT22;18778;47.610;9.776;2024-03-08T00:45:36;0.30;99.90
7920;DHT22;18778;47.610;9.776;2024-03-08T00:48:03;0.30;99.90
7920;DHT22;18778;47.610;9.776;2024-03-08T00:50:29;0.40;99.90
7920;DHT22;18778;47.610;9.776;2024-03-08T00:52:54;0.40;99.90
7920;DHT22;18778;47.610;9.776;2024-03-08T00:55:20;0.40;99.90
7920;DHT22;18778;47.610;9.776;2024-03-08T00:57:45;0.40;99.90
7920;DHT22;18778;47.610;9.776;2024-03-08T01:00:12;0.30;99.90
7920;DHT22;18778;47.610;9.776;2024-03-08T01:02:39;0.30;99.90
7920;DHT22;18778;47.610;9.776;2024-03-08T01:05:05;0.30;99.90
7920;DHT22;18778;47.610;9.776;2024-03-08T01:07:33;0.30;99.90
7920;DHT22;18778;47.610;9.776;2024-03-08T01:10:01;0.30;99.90
7920;DHT22;18778;47.610;9.776;2024-03-08T01:12:26;0.20;99.90
7920;DHT22;18778;47.610;9.776;2024-03-08T01:14:52;0.20;99.90
7920;DHT22;18778;47.610;9.776;2024-03-08T01:17:17;0.20;99.90
7920;DHT22;18778;47.610;9.776;2024-03-08T01:19:43;0.20;99.90
7920;DHT22;18778;47.610;9.776;2024-03-08T01:22:10;0.20;99.90
7920;DHT22;18778;47.610;9.776;2024-03-08T01:24:36;0.10;99.90
7920;DHT22;18778;47.610;9.776;2024-03-08T01:27:02;0.10;99.90
7920;DHT22;18778;47.610;9.776;2024-03-08T01:29:28;0.10;99.90
7920;DHT22;18778;47.610;9.776;2024-03-08T01:31:55;0.10;99.90
7920;DHT22;18778;47.610;9.776;2024-03-08T01:34:21;0.00;99.90
7920;DHT22;18778;47.610;9.776;2024-03-08T01:36:48;0.00;99.90
7920;DHT22;18778;47.610;9.776;2024-03-08T01:39:14;0.00;99.90
7920;DHT22;18778;47.610;9.776;2024-03-08T01:44:06;0.00;99.90
7920;DHT22;18778;47.610;9.776;2024-03-08T01:46:33;0.00;99.90
7920;DHT22;18778;47.610;9.776;2024-03-08T01:49:00;0.00;99.90
7920;DHT22;18778;47.610;9.776;2024-03-08T01:51:27;-0.10;99.90
7920;DHT22;18778;47.610;9.776;2024-03-08T01:53:55;0.00;99.90
7920;DHT22;18778;47.610;9.776;2024-03-08T01:56:23;-0.10;99.90
7920;DHT22;18778;47.610;9.776;2024-03-08T01:58:49;-0.10;99.90
7920;DHT22;18778;47.610;9.776;2024-03-08T02:01:15;1.40;99.90
7920;DHT22;18778;47.610;9.776;2024-03-08T02:03:41;-0.10;99.90
7920;DHT22;18778;47.610;9.776;2024-03-08T02:06:11;-0.20;99.90
7920;DHT22;18778;47.610;9.776;2024-03-08T02:08:37;-0.20;99.90
7920;DHT22;18778;47.610;9.776;2024-03-08T02:11:04;-0.20;99.90
7920;DHT22;18778;47.610;9.776;2024-03-08T02:13:30;-0.20;99.90
7920;DHT22;18778;47.610;9.776;2024-03-08T02:16:00;-0.30;99.90
7920;DHT22;18778;47.610;9.776;2024-03-08T02:18:27;-0.40;99.90
7920;DHT22;18778;47.610;9.776;2024-03-08T02:20:53;-0.30;99.90
7920;DHT22;18778;47.610;9.776;2024-03-08T02:23:20;-0.40;99.90
7920;DHT22;18778;47.610;9.776;2024-03-08T02:25:46;-0.40;99.90
7920;DHT22;18778;47.610;9.776;2024-03-08T02:28:12;-0.40;99.90
7920;DHT22;18778;47.610;9.776;2024-03-08T02:30:38;-0.40;99.90
7920;DHT22;18778;47.610;9.776;2024-03-08T02:33:05;-0.40;99.90
7920;DHT22;18778;47.610;9.776;2024-03-08T02:35:32;-0.40;99.90
7920;DHT22;18778;47.610;9.776;2024-03-08T02:37:57;-0.40;99.90
7920;DHT22;18778;47.610;9.776;2024-03-08T02:40:23;-0.30;99.90
7920;DHT22;18778;47.610;9.776;2024-03-08T02:42:49;-0.40;99.90
7920;DHT22;18778;47.610;9.776;2024-03-08T02:45:15;-0.40;99.90
7920;DHT22;18778;47.610;9.776;2024-03-08T02:47:40;-0.40;99.90
7920;DHT22;18778;47.610;9.776;2024-03-08T02:50:06;-0.40;99.90
7920;DHT22;18778;47.610;9.776;2024-03-08T02:52:34;-0.40;99.90
7920;DHT22;18778;47.610;9.776;2024-03-08T02:55:01;-0.40;99.90
7920;DHT22;18778;47.610;9.776;2024-03-08T02:57:26;-0.40;99.90
7920;DHT22;18778;47.610;9.776;2024-03-08T02:59:53;-0.40;99.90
7920;DHT22;18778;47.610;9.776;2024-03-08T03:02:19;-0.50;99.90
7920;DHT22;18778;47.610;9.776;2024-03-08T03:04:44;-0.50;99.90
7920;DHT22;18778;47.610;9.776;2024-03-08T03:07:10;-0.50;99.90
7920;DHT22;18778;47.610;9.776;2024-03-08T03:09:36;-0.50;99.90
7920;DHT22;18778;47.610;9.776;2024-03-08T03:12:02;-0.50;99.90
7920;DHT22;18778;47.610;9.776;2024-03-08T03:14:28;-0.50;99.90
7920;DHT22;18778;47.610;9.776;2024-03-08T03:16:53;-0.50;99.90
7920;DHT22;18778;47.610;9.776;2024-03-08T03:19:20;-0.60;99.90
7920;DHT22;18778;47.610;9.776;2024-03-08T03:21:45;-0.50;99.90
7920;DHT22;18778;47.610;9.776;2024-03-08T03:24:11;-0.60;99.90
7920;DHT22;18778;47.610;9.776;2024-03-08T03:26:38;-0.60;99.90
7920;DHT22;18778;47.610;9.776;2024-03-08T03:29:07;-0.60;99.90
7920;DHT22;18778;47.610;9.776;2024-03-08T03:31:34;-0.60;99.90
7920;DHT22;18778;47.610;9.776;2024-03-08T03:34:00;-0.60;99.90
7920;DHT22;18778;47.610;9.776;2024-03-08T03:36:31;-0.70;99.90
7920;DHT22;18778;47.610;9.776;2024-03-08T03:38:57;-0.70;99.90
7920;DHT22;18778;47.610;9.776;2024-03-08T03:41:32;-0.60;99.90
7920;DHT22;18778;47.610;9.776;2024-03-08T03:43:58;-0.70;99.90
7920;DHT22;18778;47.610;9.776;2024-03-08T03:46:24;-0.70;99.90
7920;DHT22;18778;47.610;9.776;2024-03-08T03:48:49;-0.80;99.90
7920;DHT22;18778;47.610;9.776;2024-03-08T03:51:15;-0.80;99.90
7920;DHT22;18778;47.610;9.776;2024-03-08T03:53:41;-0.80;99.90
7920;DHT22;18778;47.610;9.776;2024-03-08T03:56:07;-0.80;99.90
7920;DHT22;18778;47.610;9.776;2024-03-08T03:58:33;-0.70;99.90
7920;DHT22;18778;47.610;9.776;2024-03-08T04:00:58;-0.80;99.90
7920;DHT22;18778;47.610;9.776;2024-03-08T04:03:24;-0.80;99.90
7920;DHT22;18778;47.610;9.776;2024-03-08T04:05:49;-0.80;99.90
7920;DHT22;18778;47.610;9.776;2024-03-08T04:08:16;-0.80;99.90
7920;DHT22;18778;47.610;9.776;2024-03-08T04:10:42;-0.80;99.90
7920;DHT22;18778;47.610;9.776;2024-03-08T04:13:08;-0.80;99.90
7920;DHT22;18778;47.610;9.776;2024-03-08T04:15:35;-0.90;99.90
7920;DHT22;18778;47.610;9.776;2024-03-08T04:18:00;-1.00;99.90
7920;DHT22;18778;47.610;9.776;2024-03-08T04:20:26;-0.90;99.90
7920;DHT22;18778;47.610;9.776;2024-03-08T04:22:52;-0.90;99.90
7920;DHT22;18778;47.610;9.776;2024-03-08T04:25:17;-0.80;99.90
7920;DHT22;18778;47.610;9.776;2024-03-08T04:27:43;-0.90;99.90
7920;DHT22;18778;47.610;9.776;2024-03-08T04:32:36;-1.00;99.90
7920;DHT22;18778;47.610;9.776;2024-03-08T04:35:01;-1.00;99.90
7920;DHT22;18778;47.610;9.776;2024-03-08T04:37:28;-1.00;99.90
7920;DHT22;18778;47.610;9.776;2024-03-08T04:39:57;-0.90;99.90
7920;DHT22;18778;47.610;9.776;2024-03-08T04:42:22;-1.00;99.90
7920;DHT22;18778;47.610;9.776;2024-03-08T04:44:48;-1.00;99.90
7920;DHT22;18778;47.610;9.776;2024-03-08T04:47:14;-1.00;99.90
7920;DHT22;18778;47.610;9.776;2024-03-08T04:49:39;-1.00;99.90
7920;DHT22;18778;47.610;9.776;2024-03-08T04:52:05;-1.00;99.90
7920;DHT22;18778;47.610;9.776;2024-03-08T04:54:32;-1.00;99.90
7920;DHT22;18778;47.610;9.776;2024-03-08T04:56:58;-1.00;99.90
7920;DHT22;18778;47.610;9.776;2024-03-08T04:59:26;-1.00;99.90
7920;DHT22;18778;47.610;9.776;2024-03-08T05:01:52;-1.00;99.90
7920;DHT22;18778;47.610;9.776;2024-03-08T05:04:17;-1.00;99.90
7920;DHT22;18778;47.610;9.776;2024-03-08T05:06:43;-1.10;99.90
7920;DHT22;18778;47.610;9.776;2024-03-08T05:09:08;-1.10;99.90
7920;DHT22;18778;47.610;9.776;2024-03-08T05:11:44;-1.20;99.90
7920;DHT22;18778;47.610;9.776;2024-03-08T05:14:10;-1.20;99.90
7920;DHT22;18778;47.610;9.776;2024-03-08T05:16:36;-1.20;99.90
7920;DHT22;18778;47.610;9.776;2024-03-08T05:19:02;-1.10;99.90
7920;DHT22;18778;47.610;9.776;2024-03-08T05:21:28;-1.20;99.90
7920;DHT22;18778;47.610;9.776;2024-03-08T05:23:54;-1.20;99.90
7920;DHT22;18778;47.610;9.776;2024-03-08T05:26:20;-1.10;99.90
7920;DHT22;18778;47.610;9.776;2024-03-08T05:28:47;-1.20;99.90
7920;DHT22;18778;47.610;9.776;2024-03-08T05:31:20;-1.20;99.90
7920;DHT22;18778;47.610;9.776;2024-03-08T05:33:49;-1.30;99.90
7920;DHT22;18778;47.610;9.776;2024-03-08T05:36:15;-1.30;99.90
7920;DHT22;18778;47.610;9.776;2024-03-08T05:38:44;-1.30;99.90
7920;DHT22;18778;47.610;9.776;2024-03-08T05:41:10;-1.20;99.90
7920;DHT22;18778;47.610;9.776;2024-03-08T05:43:37;-1.10;99.90
7920;DHT22;18778;47.610;9.776;2024-03-08T05:46:03;-1.10;99.90
7920;DHT22;18778;47.610;9.776;2024-03-08T05:48:30;-1.00;99.90
7920;DHT22;18778;47.610;9.776;2024-03-08T05:50:57;-1.10;99.90
7920;DHT22;18778;47.610;9.776;2024-03-08T05:53:23;-1.10;99.90
7920;DHT22;18778;47.610;9.776;2024-03-08T05:55:48;-1.10;99.90
7920;DHT22;18778;47.610;9.776;2024-03-08T05:58:15;-1.10;99.90
7920;DHT22;18778;47.610;9.776;2024-03-08T06:00:40;-1.10;99.90
7920;DHT22;18778;47.610;9.776;2024-03-08T06:03:06;-1.00;99.90
7920;DHT22;18778;47.610;9.776;2024-03-08T06:05:32;-0.90;99.90
7920;DHT22;18778;47.610;9.776;2024-03-08T06:07:57;-0.90;99.90
7920;DHT22;18778;47.610;9.776;2024-03-08T06:10:23;-0.90;99.90
7920;DHT22;18778;47.610;9.776;2024-03-08T06:12:48;-1.00;99.90
7920;DHT22;18778;47.610;9.776;2024-03-08T06:15:14;-0.90;99.90
7920;DHT22;18778;47.610;9.776;2024-03-08T06:17:40;-0.90;99.90
7920;DHT22;18778;47.610;9.776;2024-03-08T06:20:06;-0.80;99.90
7920;DHT22;18778;47.610;9.776;2024-03-08T06:22:41;-0.70;99.90
7920;DHT22;18778;47.610;9.776;2024-03-08T06:25:16;-0.80;99.90
7920;DHT22;18778;47.610;9.776;2024-03-08T06:27:42;-0.70;99.90
7920;DHT22;18778;47.610;9.776;2024-03-08T06:30:09;-0.70;99.90
7920;DHT22;18778;47.610;9.776;2024-03-08T06:32:35;-0.60;99.90
7920;DHT22;18778;47.610;9.776;2024-03-08T06:35:05;-0.50;99.90
7920;DHT22;18778;47.610;9.776;2024-03-08T06:37:32;-0.50;99.90
7920;DHT22;18778;47.610;9.776;2024-03-08T06:39:58;-0.50;99.90
7920;DHT22;18778;47.610;9.776;2024-03-08T06:42:24;-0.40;99.90
7920;DHT22;18778;47.610;9.776;2024-03-08T06:44:49;-0.30;99.90
7920;DHT22;18778;47.610;9.776;2024-03-08T06:47:15;-0.30;99.90
7920;DHT22;18778;47.610;9.776;2024-03-08T06:49:44;-0.20;99.90
7920;DHT22;18778;47.610;9.776;2024-03-08T06:52:10;0.00;99.90
7920;DHT22;18778;47.610;9.776;2024-03-08T06:54:36;0.10;99.90
7920;DHT22;18778;47.610;9.776;2024-03-08T06:57:05;0.00;99.90
7920;DHT22;18778;47.610;9.776;2024-03-08T06:59:31;0.10;99.90
7920;DHT22;18778;47.610;9.776;2024-03-08T07:19:07;0.70;99.90
7920;DHT22;18778;47.610;9.776;2024-03-08T07:50:46;1.70;99.90
7920;DHT22;18778;47.610;9.776;2024-03-08T08:10:17;2.80;99.90
7920;DHT22;18778;47.610;9.776;2024-03-08T08:22:42;3.00;99.90
7920;DHT22;18778;47.610;9.776;2024-03-08T08:30:08;3.20;99.90
7920;DHT22;18778;47.610;9.776;2024-03-08T08:37:39;3.80;99.90
7920;DHT22;18778;47.610;9.776;2024-03-08T08:40:05;3.80;99.90
7920;DHT22;18778;47.610;9.776;2024-03-08T09:02:06;5.00;99.90
7920;DHT22;18778;47.610;9.776;2024-03-08T09:24:02;7.20;99.90
7920;DHT22;18778;47.610;9.776;2024-03-08T09:26:28;7.40;99.90
7920;DHT22;18778;47.610;9.776;2024-03-08T09:46:02;7.90;99.90
7920;DHT22;18778;47.610;9.776;2024-03-08T09:53:22;7.60;99.90
7920;DHT22;18778;47.610;9.776;2024-03-08T09:55:48;7.60;99.90
7920;DHT22;18778;47.610;9.776;2024-03-08T10:03:30;7.60;99.90
7920;DHT22;18778;47.610;9.776;2024-03-08T10:08:27;7.50;99.90
7920;DHT22;18778;47.610;9.776;2024-03-08T10:18:12;7.70;99.90
7920;DHT22;18778;47.610;9.776;2024-03-08T10:20:38;7.80;99.90
7920;DHT22;18778;47.610;9.776;2024-03-08T10:25:34;8.10;99.90
7920;DHT22;18778;47.610;9.776;2024-03-08T10:28:03;7.60;99.90
7920;DHT22;18778;47.610;9.776;2024-03-08T10:32:56;8.20;99.90
7920;DHT22;18778;47.610;9.776;2024-03-08T10:37:50;8.80;99.90
7920;DHT22;18778;47.610;9.776;2024-03-08T10:40:24;8.90;99.90
7920;DHT22;18778;47.610;9.776;2024-03-08T10:42:53;9.10;99.90
7920;DHT22;18778;47.610;9.776;2024-03-08T10:45:35;9.40;99.90
7920;DHT22;18778;47.610;9.776;2024-03-08T10:48:12;9.60;99.90
7920;DHT22;18778;47.610;9.776;2024-03-08T10:50:43;9.70;99.90
7920;DHT22;18778;47.610;9.776;2024-03-08T10:53:13;9.90;99.90
7920;DHT22;18778;47.610;9.776;2024-03-08T10:55:40;9.90;99.90
7920;DHT22;18778;47.610;9.776;2024-03-08T10:58:06;9.90;99.90
7920;DHT22;18778;47.610;9.776;2024-03-08T11:08:19;9.70;99.90
7920;DHT22;18778;47.610;9.776;2024-03-08T11:10:49;10.40;99.90
7920;DHT22;18778;47.610;9.776;2024-03-08T11:13:40;10.10;99.90
7920;DHT22;18778;47.610;9.776;2024-03-08T11:16:10;11.20;99.90
7920;DHT22;18778;47.610;9.776;2024-03-08T11:18:37;11.30;99.90
7920;DHT22;18778;47.610;9.776;2024-03-08T11:25:59;11.20;99.90
7920;DHT22;18778;47.610;9.776;2024-03-08T11:33:28;10.70;99.90
7920;DHT22;18778;47.610;9.776;2024-03-08T11:36:13;10.20;99.90
7920;DHT22;18778;47.610;9.776;2024-03-08T11:38:45;10.30;99.90
7920;DHT22;18778;47.610;9.776;2024-03-08T11:41:18;10.30;99.90
7920;DHT22;18778;47.610;9.776;2024-03-08T11:43:45;12.90;99.90
7920;DHT22;18778;47.610;9.776;2024-03-08T11:46:12;10.30;99.90
7920;DHT22;18778;47.610;9.776;2024-03-08T11:48:41;10.30;99.90
7920;DHT22;18778;47.610;9.776;2024-03-08T11:51:08;11.10;99.90
7920;DHT22;18778;47.610;9.776;2024-03-08T11:53:34;11.10;99.90
7920;DHT22;18778;47.610;9.776;2024-03-08T11:56:09;11.10;99.90
7920;DHT22;18778;47.610;9.776;2024-03-08T12:01:05;11.50;99.90
7920;DHT22;18778;47.610;9.776;2024-03-08T12:06:04;12.00;99.90
7920;DHT22;18778;47.610;9.776;2024-03-08T12:08:32;11.90;99.90
7920;DHT22;18778;47.610;9.776;2024-03-08T12:10:58;12.20;99.90
7920;DHT22;18778;47.610;9.776;2024-03-08T12:15:56;12.60;99.90
7920;DHT22;18778;47.610;9.776;2024-03-08T12:18:26;14.10;99.90
7920;DHT22;18778;47.610;9.776;2024-03-08T12:21:10;13.00;99.90
7920;DHT22;18778;47.610;9.776;2024-03-08T12:26:23;13.10;99.90
7920;DHT22;18778;47.610;9.776;2024-03-08T12:31:16;13.00;99.90
7920;DHT22;18778;47.610;9.776;2024-03-08T12:33:52;12.80;99.90
7920;DHT22;18778;47.610;9.776;2024-03-08T12:38:48;12.70;99.90
7920;DHT22;18778;47.610;9.776;2024-03-08T12:41:15;12.60;99.90
7920;DHT22;18778;47.610;9.776;2024-03-08T12:51:07;11.90;99.90
7920;DHT22;18778;47.610;9.776;2024-03-08T13:03:17;11.80;99.90
7920;DHT22;18778;47.610;9.776;2024-03-08T13:10:41;11.90;99.90
7920;DHT22;18778;47.610;9.776;2024-03-08T13:13:09;12.00;99.90
7920;DHT22;18778;47.610;9.776;2024-03-08T13:15:35;12.00;99.90
7920;DHT22;18778;47.610;9.776;2024-03-08T13:22:55;12.20;99.90
7920;DHT22;18778;47.610;9.776;2024-03-08T13:30:15;12.50;99.90
7920;DHT22;18778;47.610;9.776;2024-03-08T13:32:44;12.70;99.90
7920;DHT22;18778;47.610;9.776;2024-03-08T13:37:42;13.50;99.90
7920;DHT22;18778;47.610;9.776;2024-03-08T13:40:09;13.70;99.90
7920;DHT22;18778;47.610;9.776;2024-03-08T13:42:44;13.70;99.90
7920;DHT22;18778;47.610;9.776;2024-03-08T13:45:10;13.10;99.90
7920;DHT22;18778;47.610;9.776;2024-03-08T13:54:55;14.10;99.90
7920;DHT22;18778;47.610;9.776;2024-03-08T13:57:21;16.30;99.90
7920;DHT22;18778;47.610;9.776;2024-03-08T13:59:48;13.10;99.90
7920;DHT22;18778;47.610;9.776;2024-03-08T14:04:42;13.40;99.90
7920;DHT22;18778;47.610;9.776;2024-03-08T14:07:08;13.40;99.90
7920;DHT22;18778;47.610;9.776;2024-03-08T14:09:34;13.90;99.90
7920;DHT22;18778;47.610;9.776;2024-03-08T14:12:07;13.60;99.90
7920;DHT22;18778;47.610;9.776;2024-03-08T14:14:33;14.00;99.90
7920;DHT22;18778;47.610;9.776;2024-03-08T14:19:27;14.10;99.90
7920;DHT22;18778;47.610;9.776;2024-03-08T14:21:53;13.70;99.90
7920;DHT22;18778;47.610;9.776;2024-03-08T14:24:19;13.80;99.90
7920;DHT22;18778;47.610;9.776;2024-03-08T14:29:15;14.30;99.90
7920;DHT22;18778;47.610;9.776;2024-03-08T14:34:08;14.00;99.90
7920;DHT22;18778;47.610;9.776;2024-03-08T14:39:00;14.00;99.90
7920;DHT22;18778;47.610;9.776;2024-03-08T14:46:19;13.70;99.90
7920;DHT22;18778;47.610;9.776;2024-03-08T14:48:54;14.10;99.90
7920;DHT22;18778;47.610;9.776;2024-03-08T14:58:44;13.90;99.90
7920;DHT22;18778;47.610;9.776;2024-03-08T15:06:05;14.40;99.90
7920;DHT22;18778;47.610;9.776;2024-03-08T15:08:38;14.50;99.90
7920;DHT22;18778;47.610;9.776;2024-03-08T15:13:32;15.10;99.90
7920;DHT22;18778;47.610;9.776;2024-03-08T15:16:07;16.20;99.90
7920;DHT22;18778;47.610;9.776;2024-03-08T15:18:34;16.50;99.90
7920;DHT22;18778;47.610;9.776;2024-03-08T15:23:29;16.80;99.90
7920;DHT22;18778;47.610;9.776;2024-03-08T15:25:54;17.20;99.90
7920;DHT22;18778;47.610;9.776;2024-03-08T15:30:52;15.60;99.90
7920;DHT22;18778;47.610;9.776;2024-03-08T15:35:54;15.20;99.90
7920;DHT22;18778;47.610;9.776;2024-03-08T15:38:25;17.00;99.90
7920;DHT22;18778;47.610;9.776;2024-03-08T15:45:45;15.30;99.90
7920;DHT22;18778;47.610;9.776;2024-03-08T15:48:14;16.30;99.90
7920;DHT22;18778;47.610;9.776;2024-03-08T15:50:41;15.40;99.90
7920;DHT22;18778;47.610;9.776;2024-03-08T15:53:07;15.40;99.90
7920;DHT22;18778;47.610;9.776;2024-03-08T16:00:26;16.00;99.90
7920;DHT22;18778;47.610;9.776;2024-03-08T16:03:07;16.80;99.90
7920;DHT22;18778;47.610;9.776;2024-03-08T16:12:57;13.40;99.90
7920;DHT22;18778;47.610;9.776;2024-03-08T16:17:51;11.80;99.90
7920;DHT22;18778;47.610;9.776;2024-03-08T16:20:17;11.20;99.90
7920;DHT22;18778;47.610;9.776;2024-03-08T16:22:46;11.00;99.90
7920;DHT22;18778;47.610;9.776;2024-03-08T16:27:41;10.40;99.90
7920;DHT22;18778;47.610;9.776;2024-03-08T16:30:07;10.40;99.90
7920;DHT22;18778;47.610;9.776;2024-03-08T16:32:35;10.20;99.90
7920;DHT22;18778;47.610;9.776;2024-03-08T16:35:00;13.20;99.90
7920;DHT22;18778;47.610;9.776;2024-03-08T16:37:26;12.20;99.90
7920;DHT22;18778;47.610;9.776;2024-03-08T16:42:20;9.90;99.90
7920;DHT22;18778;47.610;9.776;2024-03-08T16:47:12;9.30;99.90
7920;DHT22;18778;47.610;9.776;2024-03-08T16:49:41;8.70;99.90
7920;DHT22;18778;47.610;9.776;2024-03-08T16:52:07;8.20;99.90
7920;DHT22;18778;47.610;9.776;2024-03-08T16:54:33;10.60;99.90
7920;DHT22;18778;47.610;9.776;2024-03-08T16:56:59;7.80;99.90
7920;DHT22;18778;47.610;9.776;2024-03-08T16:59:25;7.70;99.90
7920;DHT22;18778;47.610;9.776;2024-03-08T17:06:44;7.20;99.90
7920;DHT22;18778;47.610;9.776;2024-03-08T17:09:10;9.90;99.90
7920;DHT22;18778;47.610;9.776;2024-03-08T17:11:39;7.00;99.90
7920;DHT22;18778;47.610;9.776;2024-03-08T17:18:57;6.90;99.90
7920;DHT22;18778;47.610;9.776;2024-03-08T17:21:24;6.90;99.90
7920;DHT22;18778;47.610;9.776;2024-03-08T17:23:50;6.90;99.90
7920;DHT22;18778;47.610;9.776;2024-03-08T17:31:09;7.00;99.90
7920;DHT22;18778;47.610;9.776;2024-03-08T17:33:38;6.70;99.90
7920;DHT22;18778;47.610;9.776;2024-03-08T17:36:07;6.70;99.90
7920;DHT22;18778;47.610;9.776;2024-03-08T17:48:30;7.00;99.90
7920;DHT22;18778;47.610;9.776;2024-03-08T17:50:57;6.90;99.90
7920;DHT22;18778;47.610;9.776;2024-03-08T17:58:17;7.10;99.90
7920;DHT22;18778;47.610;9.776;2024-03-08T18:05:40;7.00;99.90
7920;DHT22;18778;47.610;9.776;2024-03-08T18:10:35;6.90;99.90
7920;DHT22;18778;47.610;9.776;2024-03-08T18:13:02;6.90;99.90
7920;DHT22;18778;47.610;9.776;2024-03-08T18:18:00;6.80;99.90
7920;DHT22;18778;47.610;9.776;2024-03-08T18:20:31;6.60;99.90
7920;DHT22;18778;47.610;9.776;2024-03-08T18:23:01;6.70;99.90
7920;DHT22;18778;47.610;9.776;2024-03-08T18:25:28;6.30;99.90
7920;DHT22;18778;47.610;9.776;2024-03-08T18:27:55;6.50;99.90
7920;DHT22;18778;47.610;9.776;2024-03-08T18:35:17;6.20;99.90
7920;DHT22;18778;47.610;9.776;2024-03-08T18:37:47;6.10;99.90
7920;DHT22;18778;47.610;9.776;2024-03-08T18:42:42;6.00;99.90
7920;DHT22;18778;47.610;9.776;2024-03-08T18:45:13;6.00;99.90
7920;DHT22;18778;47.610;9.776;2024-03-08T18:47:41;5.80;99.90
7920;DHT22;18778;47.610;9.776;2024-03-08T18:50:10;5.60;99.90
7920;DHT22;18778;47.610;9.776;2024-03-08T18:52:43;5.70;99.90
7920;DHT22;18778;47.610;9.776;2024-03-08T18:57:39;5.70;99.90
7920;DHT22;18778;47.610;9.776;2024-03-08T19:00:07;5.50;99.90
7920;DHT22;18778;47.610;9.776;2024-03-08T19:02:42;5.70;99.90
7920;DHT22;18778;47.610;9.776;2024-03-08T19:05:08;5.50;99.90
7920;DHT22;18778;47.610;9.776;2024-03-08T19:07:42;6.90;99.90
7920;DHT22;18778;47.610;9.776;2024-03-08T19:10:09;5.40;99.90
7920;DHT22;18778;47.610;9.776;2024-03-08T19:12:34;5.40;99.90
7920;DHT22;18778;47.610;9.776;2024-03-08T19:15:00;5.30;99.90
7920;DHT22;18778;47.610;9.776;2024-03-08T19:17:36;5.30;99.90
7920;DHT22;18778;47.610;9.776;2024-03-08T19:20:04;5.30;99.90
7920;DHT22;18778;47.610;9.776;2024-03-08T19:22:31;5.40;99.90
7920;DHT22;18778;47.610;9.776;2024-03-08T19:24:57;5.40;99.90
7920;DHT22;18778;47.610;9.776;2024-03-08T19:27:23;5.50;99.90
7920;DHT22;18778;47.610;9.776;2024-03-08T19:29:48;5.50;99.90
7920;DHT22;18778;47.610;9.776;2024-03-08T19:32:14;5.50;99.90
7920;DHT22;18778;47.610;9.776;2024-03-08T19:34:39;5.40;99.90
7920;DHT22;18778;47.610;9.776;2024-03-08T19:37:05;5.40;99.90
7920;DHT22;18778;47.610;9.776;2024-03-08T19:39:34;5.40;99.90
7920;DHT22;18778;47.610;9.776;2024-03-08T19:42:00;5.30;99.90
7920;DHT22;18778;47.610;9.776;2024-03-08T19:44:26;5.40;99.90
7920;DHT22;18778;47.610;9.776;2024-03-08T19:46:52;5.30;99.90
7920;DHT22;18778;47.610;9.776;2024-03-08T19:49:17;5.30;99.90
7920;DHT22;18778;47.610;9.776;2024-03-08T19:51:43;5.20;99.90
7920;DHT22;18778;47.610;9.776;2024-03-08T19:54:11;5.10;99.90
7920;DHT22;18778;47.610;9.776;2024-03-08T19:56:40;5.00;99.90
7920;DHT22;18778;47.610;9.776;2024-03-08T19:59:08;5.00;99.90
7920;DHT22;18778;47.610;9.776;2024-03-08T20:01:34;7.80;99.90
7920;DHT22;18778;47.610;9.776;2024-03-08T20:03:59;5.70;99.90
7920;DHT22;18778;47.610;9.776;2024-03-08T20:06:25;4.90;99.90
7920;DHT22;18778;47.610;9.776;2024-03-08T20:08:50;4.90;99.90
7920;DHT22;18778;47.610;9.776;2024-03-08T20:11:16;4.80;99.90
7920;DHT22;18778;47.610;9.776;2024-03-08T20:13:42;4.70;99.90
7920;DHT22;18778;47.610;9.776;2024-03-08T20:16:09;4.70;99.90
7920;DHT22;18778;47.610;9.776;2024-03-08T20:18:35;4.60;99.90
7920;DHT22;18778;47.610;9.776;2024-03-08T20:21:04;4.60;99.90
7920;DHT22;18778;47.610;9.776;2024-03-08T20:23:29;4.50;99.90
7920;DHT22;18778;47.610;9.776;2024-03-08T20:25:55;4.50;99.90
7920;DHT22;18778;47.610;9.776;2024-03-08T20:28:22;4.50;99.90
7920;DHT22;18778;47.610;9.776;2024-03-08T20:30:51;5.10;99.90
7920;DHT22;18778;47.610;9.776;2024-03-08T20:33:17;4.30;99.90
7920;DHT22;18778;47.610;9.776;2024-03-08T20:35:43;4.20;99.90
7920;DHT22;18778;47.610;9.776;2024-03-08T20:38:15;4.10;99.90
7920;DHT22;18778;47.610;9.776;2024-03-08T20:40:45;4.00;99.90
7920;DHT22;18778;47.610;9.776;2024-03-08T20:43:13;4.00;99.90
7920;DHT22;18778;47.610;9.776;2024-03-08T20:45:43;4.10;99.90
7920;DHT22;18778;47.610;9.776;2024-03-08T20:48:09;4.20;99.90
7920;DHT22;18778;47.610;9.776;2024-03-08T20:50:35;4.20;99.90
7920;DHT22;18778;47.610;9.776;2024-03-08T20:53:06;4.20;99.90
7920;DHT22;18778;47.610;9.776;2024-03-08T20:55:38;4.80;99.90
7920;DHT22;18778;47.610;9.776;2024-03-08T20:58:10;4.00;99.90
7920;DHT22;18778;47.610;9.776;2024-03-08T21:00:36;4.00;99.90
7920;DHT22;18778;47.610;9.776;2024-03-08T21:03:08;3.90;99.90
7920;DHT22;18778;47.610;9.776;2024-03-08T21:05:35;3.90;99.90
7920;DHT22;18778;47.610;9.776;2024-03-08T21:08:03;3.80;99.90
7920;DHT22;18778;47.610;9.776;2024-03-08T21:10:34;3.90;99.90
7920;DHT22;18778;47.610;9.776;2024-03-08T21:13:01;3.80;99.90
7920;DHT22;18778;47.610;9.776;2024-03-08T21:15:27;3.70;99.90
7920;DHT22;18778;47.610;9.776;2024-03-08T21:20:19;3.70;99.90
7920;DHT22;18778;47.610;9.776;2024-03-08T21:22:46;3.70;99.90
7920;DHT22;18778;47.610;9.776;2024-03-08T21:25:13;3.60;99.90
7920;DHT22;18778;47.610;9.776;2024-03-08T21:27:41;3.60;99.90
7920;DHT22;18778;47.610;9.776;2024-03-08T21:30:07;3.60;99.90
7920;DHT22;18778;47.610;9.776;2024-03-08T21:32:36;3.70;99.90
7920;DHT22;18778;47.610;9.776;2024-03-08T21:35:03;3.70;99.90
7920;DHT22;18778;47.610;9.776;2024-03-08T21:37:29;3.70;99.90
7920;DHT22;18778;47.610;9.776;2024-03-08T21:39:54;3.70;99.90
7920;DHT22;18778;47.610;9.776;2024-03-08T21:42:20;3.70;99.90
7920;DHT22;18778;47.610;9.776;2024-03-08T21:44:45;3.70;99.90
7920;DHT22;18778;47.610;9.776;2024-03-08T21:47:12;3.60;99.90
7920;DHT22;18778;47.610;9.776;2024-03-08T21:49:37;3.50;99.90
7920;DHT22;18778;47.610;9.776;2024-03-08T21:52:03;3.50;99.90
7920;DHT22;18778;47.610;9.776;2024-03-08T21:54:29;3.40;99.90
7920;DHT22;18778;47.610;9.776;2024-03-08T21:56:55;3.40;99.90
7920;DHT22;18778;47.610;9.776;2024-03-08T21:59:24;3.20;99.90